sensor_id;sensor_type;location;lat;lon;timestamp;temperature;humidity
28763;DHT22;15918;51.270;6.522;2023-05-24T00:00:56;17.90;47.80
28763;DHT22;15918;51.270;6.522;2023-05-24T00:03:21;17.90;47.80
28763;DHT22;15918;51.270;6.522;2023-05-24T00:05:47;17.80;47.90
28763;DHT22;15918;51.270;6.522;2023-05-24T00:08:13;17.80;47.90
28763;DHT22;15918;51.270;6.522;2023-05-24T00:10:40;17.80;47.90
28763;DHT22;15918;51.270;6.522;2023-05-24T00:13:06;17.80;47.90
28763;DHT22;15918;51.270;6.522;2023-05-24T00:15:32;17.90;47.90
28763;DHT22;15918;51.270;6.522;2023-05-24T00:17:57;17.80;48.00
28763;DHT22;15918;51.270;6.522;2023-05-24T00:20:23;17.80;48.00
28763;DHT22;15918;51.270;6.522;2023-05-24T00:22:49;17.80;48.00
28763;DHT22;15918;51.270;6.522;2023-05-24T00:25:14;17.70;48.00
28763;DHT22;15918;51.270;6.522;2023-05-24T00:27:40;17.70;48.10
28763;DHT22;15918;51.270;6.522;2023-05-24T00:30:06;17.70;48.20
28763;DHT22;15918;51.270;6.522;2023-05-24T00:32:32;17.70;48.20
28763;DHT22;15918;51.270;6.522;2023-05-24T00:34:57;17.70;48.20
28763;DHT22;15918;51.270;6.522;2023-05-24T00:37:23;17.70;48.30
28763;DHT22;15918;51.270;6.522;2023-05-24T00:39:48;17.60;48.30
28763;DHT22;15918;51.270;6.522;2023-05-24T00:42:14;17.70;48.40
28763;DHT22;15918;51.270;6.522;2023-05-24T00:44:40;17.60;48.40
28763;DHT22;15918;51.270;6.522;2023-05-24T00:47:06;17.60;48.40
28763;DHT22;15918;51.270;6.522;2023-05-24T00:49:32;17.60;48.40
28763;DHT22;15918;51.270;6.522;2023-05-24T00:51:58;17.50;48.40
28763;DHT22;15918;51.270;6.522;2023-05-24T00:54:24;17.50;48.40
28763;DHT22;15918;51.270;6.522;2023-05-24T00:56:51;17.50;48.40
28763;DHT22;15918;51.270;6.522;2023-05-24T00:59:18;17.50;48.50
28763;DHT22;15918;51.270;6.522;2023-05-24T01:01:43;17.50;48.50
28763;DHT22;15918;51.270;6.522;2023-05-24T01:04:12;17.50;48.60
28763;DHT22;15918;51.270;6.522;2023-05-24T01:07:11;17.40;48.50
28763;DHT22;15918;51.270;6.522;2023-05-24T01:10:15;17.40;48.40
28763;DHT22;15918;51.270;6.522;2023-05-24T01:13:00;17.40;48.50
28763;DHT22;15918;51.270;6.522;2023-05-24T01:18:06;17.30;48.50
28763;DHT22;15918;51.270;6.522;2023-05-24T01:20:35;17.30;48.60
28763;DHT22;15918;51.270;6.522;2023-05-24T01:23:30;17.30;48.60
28763;DHT22;15918;51.270;6.522;2023-05-24T01:28:31;17.20;48.60
28763;DHT22;15918;51.270;6.522;2023-05-24T01:30:57;17.20;48.70
28763;DHT22;15918;51.270;6.522;2023-05-24T01:33:24;17.20;48.70
28763;DHT22;15918;51.270;6.522;2023-05-24T01:35:50;17.20;48.70
28763;DHT22;15918;51.270;6.522;2023-05-24T01:38:16;17.10;48.60
28763;DHT22;15918;51.270;6.522;2023-05-24T01:40:42;17.10;48.60
28763;DHT22;15918;51.270;6.522;2023-05-24T01:43:22;17.10;48.70
28763;DHT22;15918;51.270;6.522;2023-05-24T01:46:12;17.10;48.70
28763;DHT22;15918;51.270;6.522;2023-05-24T01:51:17;17.00;48.80
28763;DHT22;15918;51.270;6.522;2023-05-24T01:53:48;17.00;48.80
28763;DHT22;15918;51.270;6.522;2023-05-24T01:56:16;17.00;48.80
28763;DHT22;15918;51.270;6.522;2023-05-24T01:58:44;17.00;48.80
28763;DHT22;15918;51.270;6.522;2023-05-24T02:01:11;17.00;48.80
28763;DHT22;15918;51.270;6.522;2023-05-24T02:03:38;17.00;48.90
28763;DHT22;15918;51.270;6.522;2023-05-24T02:06:05;16.90;48.80
28763;DHT22;15918;51.270;6.522;2023-05-24T02:08:31;16.90;48.90
28763;DHT22;15918;51.270;6.522;2023-05-24T02:10:56;16.90;49.00
28763;DHT22;15918;51.270;6.522;2023-05-24T02:13:22;16.90;49.00
28763;DHT22;15918;51.270;6.522;2023-05-24T02:15:47;16.90;49.10
28763;DHT22;15918;51.270;6.522;2023-05-24T02:18:14;16.80;49.00
28763;DHT22;15918;51.270;6.522;2023-05-24T02:20:42;16.80;49.00
28763;DHT22;15918;51.270;6.522;2023-05-24T02:23:08;16.70;49.00
28763;DHT22;15918;51.270;6.522;2023-05-24T02:25:34;16.70;49.00
28763;DHT22;15918;51.270;6.522;2023-05-24T02:27:59;16.70;49.00
28763;DHT22;15918;51.270;6.522;2023-05-24T02:30:25;16.70;49.00
28763;DHT22;15918;51.270;6.522;2023-05-24T02:32:51;16.70;49.00
28763;DHT22;15918;51.270;6.522;2023-05-24T02:35:16;16.70;49.10
28763;DHT22;15918;51.270;6.522;2023-05-24T02:37:42;16.70;49.10
28763;DHT22;15918;51.270;6.522;2023-05-24T02:40:08;16.60;49.10
28763;DHT22;15918;51.270;6.522;2023-05-24T02:42:34;16.60;49.10
28763;DHT22;15918;51.270;6.522;2023-05-24T02:44:59;16.60;49.10
28763;DHT22;15918;51.270;6.522;2023-05-24T02:47:25;16.60;49.10
28763;DHT22;15918;51.270;6.522;2023-05-24T02:49:52;16.50;49.00
28763;DHT22;15918;51.270;6.522;2023-05-24T02:52:18;16.50;49.10
28763;DHT22;15918;51.270;6.522;2023-05-24T02:54:46;16.50;49.00
28763;DHT22;15918;51.270;6.522;2023-05-24T02:57:12;16.50;49.10
28763;DHT22;15918;51.270;6.522;2023-05-24T02:59:37;16.50;49.10
28763;DHT22;15918;51.270;6.522;2023-05-24T03:02:03;16.50;49.10
28763;DHT22;15918;51.270;6.522;2023-05-24T03:04:28;16.40;49.10
28763;DHT22;15918;51.270;6.522;2023-05-24T03:06:54;16.50;49.20
28763;DHT22;15918;51.270;6.522;2023-05-24T03:09:20;16.40;49.20
28763;DHT22;15918;51.270;6.522;2023-05-24T03:11:46;16.40;49.20
28763;DHT22;15918;51.270;6.522;2023-05-24T03:14:12;16.40;49.30
28763;DHT22;15918;51.270;6.522;2023-05-24T03:16:37;16.30;49.30
28763;DHT22;15918;51.270;6.522;2023-05-24T03:19:03;16.30;49.30
28763;DHT22;15918;51.270;6.522;2023-05-24T03:21:30;16.40;49.30
28763;DHT22;15918;51.270;6.522;2023-05-24T03:23:56;16.30;49.30
28763;DHT22;15918;51.270;6.522;2023-05-24T03:26:22;16.30;49.40
28763;DHT22;15918;51.270;6.522;2023-05-24T03:28:48;16.30;49.40
28763;DHT22;15918;51.270;6.522;2023-05-24T03:31:15;16.30;49.50
28763;DHT22;15918;51.270;6.522;2023-05-24T03:33:41;16.30;49.50
28763;DHT22;15918;51.270;6.522;2023-05-24T03:36:06;16.20;49.50
28763;DHT22;15918;51.270;6.522;2023-05-24T03:38:32;16.20;49.60
28763;DHT22;15918;51.270;6.522;2023-05-24T03:40:58;16.20;49.60
28763;DHT22;15918;51.270;6.522;2023-05-24T03:43:24;16.20;49.70
28763;DHT22;15918;51.270;6.522;2023-05-24T03:45:50;16.20;49.70
28763;DHT22;15918;51.270;6.522;2023-05-24T03:48:16;16.10;49.70
28763;DHT22;15918;51.270;6.522;2023-05-24T03:50:45;16.20;49.80
28763;DHT22;15918;51.270;6.522;2023-05-24T03:53:11;16.20;49.80
28763;DHT22;15918;51.270;6.522;2023-05-24T03:55:36;16.10;49.80
28763;DHT22;15918;51.270;6.522;2023-05-24T03:58:02;16.10;49.90
28763;DHT22;15918;51.270;6.522;2023-05-24T04:00:28;16.10;50.00
28763;DHT22;15918;51.270;6.522;2023-05-24T04:02:54;16.10;50.00
28763;DHT22;15918;51.270;6.522;2023-05-24T04:05:20;16.10;50.10
28763;DHT22;15918;51.270;6.522;2023-05-24T04:07:46;16.10;50.20
28763;DHT22;15918;51.270;6.522;2023-05-24T04:10:12;16.00;50.80
28763;DHT22;15918;51.270;6.522;2023-05-24T04:12:39;16.10;50.20
28763;DHT22;15918;51.270;6.522;2023-05-24T04:15:05;16.10;50.40
28763;DHT22;15918;51.270;6.522;2023-05-24T04:17:31;16.00;50.30
28763;DHT22;15918;51.270;6.522;2023-05-24T04:19:59;16.00;50.50
28763;DHT22;15918;51.270;6.522;2023-05-24T04:22:25;16.00;50.50
28763;DHT22;15918;51.270;6.522;2023-05-24T04:24:50;16.00;50.60
28763;DHT22;15918;51.270;6.522;2023-05-24T04:27:16;16.00;50.80
28763;DHT22;15918;51.270;6.522;2023-05-24T04:29:43;16.00;50.90
28763;DHT22;15918;51.270;6.522;2023-05-24T04:32:10;16.00;51.00
28763;DHT22;15918;51.270;6.522;2023-05-24T04:34:39;16.00;51.10
28763;DHT22;15918;51.270;6.522;2023-05-24T04:37:07;15.90;51.20
28763;DHT22;15918;51.270;6.522;2023-05-24T04:39:33;15.90;51.30
28763;DHT22;15918;51.270;6.522;2023-05-24T04:41:58;16.00;51.40
28763;DHT22;15918;51.270;6.522;2023-05-24T04:44:25;15.90;51.50
28763;DHT22;15918;51.270;6.522;2023-05-24T04:46:51;15.90;51.70
28763;DHT22;15918;51.270;6.522;2023-05-24T04:49:17;15.90;51.80
28763;DHT22;15918;51.270;6.522;2023-05-24T04:51:44;16.00;51.90
28763;DHT22;15918;51.270;6.522;2023-05-24T04:54:09;15.90;52.00
28763;DHT22;15918;51.270;6.522;2023-05-24T04:56:35;15.90;52.10
28763;DHT22;15918;51.270;6.522;2023-05-24T04:59:03;15.90;52.20
28763;DHT22;15918;51.270;6.522;2023-05-24T05:01:30;16.00;52.40
28763;DHT22;15918;51.270;6.522;2023-05-24T05:03:55;15.90;52.40
28763;DHT22;15918;51.270;6.522;2023-05-24T05:06:21;15.80;52.50
28763;DHT22;15918;51.270;6.522;2023-05-24T05:08:47;15.90;52.60
28763;DHT22;15918;51.270;6.522;2023-05-24T05:11:13;15.80;52.70
28763;DHT22;15918;51.270;6.522;2023-05-24T05:13:39;15.80;52.80
28763;DHT22;15918;51.270;6.522;2023-05-24T05:16:05;15.80;52.90
28763;DHT22;15918;51.270;6.522;2023-05-24T05:18:30;15.80;52.90
28763;DHT22;15918;51.270;6.522;2023-05-24T05:20:58;15.90;53.10
28763;DHT22;15918;51.270;6.522;2023-05-24T05:23:23;15.80;53.10
28763;DHT22;15918;51.270;6.522;2023-05-24T05:25:49;15.90;53.20
28763;DHT22;15918;51.270;6.522;2023-05-24T05:28:15;15.90;53.30
28763;DHT22;15918;51.270;6.522;2023-05-24T05:30:41;15.90;53.30
28763;DHT22;15918;51.270;6.522;2023-05-24T05:33:07;15.90;53.40
28763;DHT22;15918;51.270;6.522;2023-05-24T05:35:32;15.90;53.40
28763;DHT22;15918;51.270;6.522;2023-05-24T05:37:58;16.00;53.50
28763;DHT22;15918;51.270;6.522;2023-05-24T05:40:23;15.90;53.50
28763;DHT22;15918;51.270;6.522;2023-05-24T05:42:49;15.90;53.50
28763;DHT22;15918;51.270;6.522;2023-05-24T05:45:15;15.90;54.20
28763;DHT22;15918;51.270;6.522;2023-05-24T05:47:41;15.90;53.60
28763;DHT22;15918;51.270;6.522;2023-05-24T05:50:07;15.90;53.70
28763;DHT22;15918;51.270;6.522;2023-05-24T05:52:33;15.90;53.80
28763;DHT22;15918;51.270;6.522;2023-05-24T05:54:59;16.00;53.90
28763;DHT22;15918;51.270;6.522;2023-05-24T05:57:25;15.80;53.90
28763;DHT22;15918;51.270;6.522;2023-05-24T05:59:51;15.90;54.10
28763;DHT22;15918;51.270;6.522;2023-05-24T06:02:16;15.90;54.10
28763;DHT22;15918;51.270;6.522;2023-05-24T06:04:46;15.90;54.20
28763;DHT22;15918;51.270;6.522;2023-05-24T06:07:12;15.90;54.30
28763;DHT22;15918;51.270;6.522;2023-05-24T06:09:40;15.90;54.30
28763;DHT22;15918;51.270;6.522;2023-05-24T06:12:06;15.90;54.50
28763;DHT22;15918;51.270;6.522;2023-05-24T06:14:31;15.90;54.60
28763;DHT22;15918;51.270;6.522;2023-05-24T06:16:59;16.00;54.70
28763;DHT22;15918;51.270;6.522;2023-05-24T06:19:24;16.00;54.80
28763;DHT22;15918;51.270;6.522;2023-05-24T06:21:51;15.90;54.90
28763;DHT22;15918;51.270;6.522;2023-05-24T06:24:17;16.00;55.10
28763;DHT22;15918;51.270;6.522;2023-05-24T06:26:45;15.90;55.20
28763;DHT22;15918;51.270;6.522;2023-05-24T06:29:11;15.90;55.20
28763;DHT22;15918;51.270;6.522;2023-05-24T06:31:38;16.00;55.20
28763;DHT22;15918;51.270;6.522;2023-05-24T06:34:04;16.00;55.20
28763;DHT22;15918;51.270;6.522;2023-05-24T06:36:30;16.00;55.20
28763;DHT22;15918;51.270;6.522;2023-05-24T06:38:58;16.00;55.30
28763;DHT22;15918;51.270;6.522;2023-05-24T06:41:24;16.10;55.40
28763;DHT22;15918;51.270;6.522;2023-05-24T06:43:51;16.10;55.30
28763;DHT22;15918;51.270;6.522;2023-05-24T06:46:16;16.20;55.30
28763;DHT22;15918;51.270;6.522;2023-05-24T06:48:42;16.20;55.30
28763;DHT22;15918;51.270;6.522;2023-05-24T06:51:08;16.20;55.40
28763;DHT22;15918;51.270;6.522;2023-05-24T06:53:33;16.20;55.40
28763;DHT22;15918;51.270;6.522;2023-05-24T06:55:59;16.20;55.40
28763;DHT22;15918;51.270;6.522;2023-05-24T06:58:25;16.20;55.40
28763;DHT22;15918;51.270;6.522;2023-05-24T07:00:51;16.40;55.50
28763;DHT22;15918;51.270;6.522;2023-05-24T07:03:17;16.40;55.50
28763;DHT22;15918;51.270;6.522;2023-05-24T07:05:43;16.30;55.50
28763;DHT22;15918;51.270;6.522;2023-05-24T07:08:09;16.30;55.50
28763;DHT22;15918;51.270;6.522;2023-05-24T07:10:35;16.40;55.50
28763;DHT22;15918;51.270;6.522;2023-05-24T07:13:00;16.40;55.50
28763;DHT22;15918;51.270;6.522;2023-05-24T07:15:26;16.40;55.50
28763;DHT22;15918;51.270;6.522;2023-05-24T07:17:52;16.40;55.50
28763;DHT22;15918;51.270;6.522;2023-05-24T07:20:17;16.50;55.50
28763;DHT22;15918;51.270;6.522;2023-05-24T07:22:43;16.40;55.40
28763;DHT22;15918;51.270;6.522;2023-05-24T07:25:09;16.50;55.50
28763;DHT22;15918;51.270;6.522;2023-05-24T07:27:34;16.60;55.50
28763;DHT22;15918;51.270;6.522;2023-05-24T07:30:01;16.60;55.40
28763;DHT22;15918;51.270;6.522;2023-05-24T07:32:27;16.60;55.60
28763;DHT22;15918;51.270;6.522;2023-05-24T07:34:53;16.70;55.60
28763;DHT22;15918;51.270;6.522;2023-05-24T07:37:19;16.60;55.40
28763;DHT22;15918;51.270;6.522;2023-05-24T07:39:44;16.70;55.30
28763;DHT22;15918;51.270;6.522;2023-05-24T07:42:10;16.80;55.30
28763;DHT22;15918;51.270;6.522;2023-05-24T07:44:36;16.80;55.10
28763;DHT22;15918;51.270;6.522;2023-05-24T07:47:01;16.80;55.20
28763;DHT22;15918;51.270;6.522;2023-05-24T07:49:27;16.80;55.10
28763;DHT22;15918;51.270;6.522;2023-05-24T07:51:53;16.90;55.20
28763;DHT22;15918;51.270;6.522;2023-05-24T07:54:22;16.80;55.10
28763;DHT22;15918;51.270;6.522;2023-05-24T07:56:48;16.90;55.10
28763;DHT22;15918;51.270;6.522;2023-05-24T07:59:13;16.90;55.00
28763;DHT22;15918;51.270;6.522;2023-05-24T08:01:39;16.90;55.00
28763;DHT22;15918;51.270;6.522;2023-05-24T08:04:05;17.00;55.50
28763;DHT22;15918;51.270;6.522;2023-05-24T08:06:33;17.00;55.10
28763;DHT22;15918;51.270;6.522;2023-05-24T08:08:59;17.00;55.60
28763;DHT22;15918;51.270;6.522;2023-05-24T08:11:26;17.00;55.10
28763;DHT22;15918;51.270;6.522;2023-05-24T08:13:52;17.00;55.00
28763;DHT22;15918;51.270;6.522;2023-05-24T08:16:17;17.00;54.90
28763;DHT22;15918;51.270;6.522;2023-05-24T08:18:43;17.00;54.80
28763;DHT22;15918;51.270;6.522;2023-05-24T08:21:08;17.10;55.00
28763;DHT22;15918;51.270;6.522;2023-05-24T08:23:34;17.10;54.90
28763;DHT22;15918;51.270;6.522;2023-05-24T08:26:00;17.10;54.80
28763;DHT22;15918;51.270;6.522;2023-05-24T08:28:27;17.10;54.70
28763;DHT22;15918;51.270;6.522;2023-05-24T08:30:53;17.10;54.60
28763;DHT22;15918;51.270;6.522;2023-05-24T08:33:19;17.10;54.40
28763;DHT22;15918;51.270;6.522;2023-05-24T08:35:44;17.20;54.30
28763;DHT22;15918;51.270;6.522;2023-05-24T08:38:10;17.20;54.10
28763;DHT22;15918;51.270;6.522;2023-05-24T08:40:36;17.20;53.90
28763;DHT22;15918;51.270;6.522;2023-05-24T08:43:02;17.20;53.80
28763;DHT22;15918;51.270;6.522;2023-05-24T08:45:39;17.20;53.70
28763;DHT22;15918;51.270;6.522;2023-05-24T08:48:05;17.20;53.70
28763;DHT22;15918;51.270;6.522;2023-05-24T08:50:34;17.20;53.60
28763;DHT22;15918;51.270;6.522;2023-05-24T08:53:00;17.30;53.60
28763;DHT22;15918;51.270;6.522;2023-05-24T08:55:32;17.20;53.50
28763;DHT22;15918;51.270;6.522;2023-05-24T08:57:58;17.20;53.50
28763;DHT22;15918;51.270;6.522;2023-05-24T09:00:24;17.20;53.50
28763;DHT22;15918;51.270;6.522;2023-05-24T09:02:51;17.30;53.50
28763;DHT22;15918;51.270;6.522;2023-05-24T09:05:18;17.30;53.50
28763;DHT22;15918;51.270;6.522;2023-05-24T09:07:47;17.30;53.50
28763;DHT22;15918;51.270;6.522;2023-05-24T09:10:13;17.30;53.40
28763;DHT22;15918;51.270;6.522;2023-05-24T09:12:43;17.30;53.40
28763;DHT22;15918;51.270;6.522;2023-05-24T09:15:10;17.30;53.30
28763;DHT22;15918;51.270;6.522;2023-05-24T09:17:36;17.30;53.40
28763;DHT22;15918;51.270;6.522;2023-05-24T09:20:03;17.40;53.30
28763;DHT22;15918;51.270;6.522;2023-05-24T09:22:31;17.30;53.20
28763;DHT22;15918;51.270;6.522;2023-05-24T09:25:02;17.30;53.20
28763;DHT22;15918;51.270;6.522;2023-05-24T09:27:31;17.30;53.10
28763;DHT22;15918;51.270;6.522;2023-05-24T09:29:57;17.40;53.00
28763;DHT22;15918;51.270;6.522;2023-05-24T09:32:23;17.30;52.90
28763;DHT22;15918;51.270;6.522;2023-05-24T09:34:51;17.30;52.80
28763;DHT22;15918;51.270;6.522;2023-05-24T09:37:19;17.30;52.80
28763;DHT22;15918;51.270;6.522;2023-05-24T09:39:47;17.40;52.80
28763;DHT22;15918;51.270;6.522;2023-05-24T09:42:15;17.30;52.60
28763;DHT22;15918;51.270;6.522;2023-05-24T09:44:42;17.40;52.70
28763;DHT22;15918;51.270;6.522;2023-05-24T09:47:08;17.40;52.60
28763;DHT22;15918;51.270;6.522;2023-05-24T09:49:37;17.30;52.70
28763;DHT22;15918;51.270;6.522;2023-05-24T09:52:03;17.40;52.70
28763;DHT22;15918;51.270;6.522;2023-05-24T09:54:31;17.40;52.80
28763;DHT22;15918;51.270;6.522;2023-05-24T09:56:59;17.40;52.80
28763;DHT22;15918;51.270;6.522;2023-05-24T09:59:26;17.40;52.80
28763;DHT22;15918;51.270;6.522;2023-05-24T10:02:06;17.40;52.90
28763;DHT22;15918;51.270;6.522;2023-05-24T10:04:34;17.40;52.90
28763;DHT22;15918;51.270;6.522;2023-05-24T10:07:01;17.40;52.90
28763;DHT22;15918;51.270;6.522;2023-05-24T10:09:28;17.40;52.90
28763;DHT22;15918;51.270;6.522;2023-05-24T10:12:04;17.50;52.90
28763;DHT22;15918;51.270;6.522;2023-05-24T10:14:37;17.40;52.90
28763;DHT22;15918;51.270;6.522;2023-05-24T10:17:03;17.40;52.90
28763;DHT22;15918;51.270;6.522;2023-05-24T10:19:33;17.40;53.00
28763;DHT22;15918;51.270;6.522;2023-05-24T10:22:01;17.50;53.10
28763;DHT22;15918;51.270;6.522;2023-05-24T10:24:43;17.50;52.90
28763;DHT22;15918;51.270;6.522;2023-05-24T10:27:14;17.50;52.80
28763;DHT22;15918;51.270;6.522;2023-05-24T10:29:58;17.50;52.70
28763;DHT22;15918;51.270;6.522;2023-05-24T10:32:26;17.50;52.40
28763;DHT22;15918;51.270;6.522;2023-05-24T10:34:57;17.50;52.40
28763;DHT22;15918;51.270;6.522;2023-05-24T10:37:24;17.60;52.20
28763;DHT22;15918;51.270;6.522;2023-05-24T10:39:51;17.60;52.10
28763;DHT22;15918;51.270;6.522;2023-05-24T10:42:16;17.60;52.00
28763;DHT22;15918;51.270;6.522;2023-05-24T10:44:43;17.60;51.80
28763;DHT22;15918;51.270;6.522;2023-05-24T10:47:09;17.70;51.70
28763;DHT22;15918;51.270;6.522;2023-05-24T10:49:46;17.70;51.60
28763;DHT22;15918;51.270;6.522;2023-05-24T10:52:12;17.70;51.50
28763;DHT22;15918;51.270;6.522;2023-05-24T10:54:38;17.70;51.50
28763;DHT22;15918;51.270;6.522;2023-05-24T10:57:05;17.70;51.40
28763;DHT22;15918;51.270;6.522;2023-05-24T10:59:37;17.80;51.30
28763;DHT22;15918;51.270;6.522;2023-05-24T11:02:08;17.70;51.20
28763;DHT22;15918;51.270;6.522;2023-05-24T11:04:44;17.70;51.10
28763;DHT22;15918;51.270;6.522;2023-05-24T11:07:13;17.70;50.90
28763;DHT22;15918;51.270;6.522;2023-05-24T11:09:39;17.80;50.90
28763;DHT22;15918;51.270;6.522;2023-05-24T11:12:14;17.80;50.90
28763;DHT22;15918;51.270;6.522;2023-05-24T11:14:46;17.80;50.90
28763;DHT22;15918;51.270;6.522;2023-05-24T11:17:13;17.90;50.80
28763;DHT22;15918;51.270;6.522;2023-05-24T11:19:45;17.80;50.70
28763;DHT22;15918;51.270;6.522;2023-05-24T11:22:13;18.00;51.40
28763;DHT22;15918;51.270;6.522;2023-05-24T11:24:40;17.90;50.70
28763;DHT22;15918;51.270;6.522;2023-05-24T11:27:06;17.90;50.70
28763;DHT22;15918;51.270;6.522;2023-05-24T11:29:42;18.00;50.70
28763;DHT22;15918;51.270;6.522;2023-05-24T11:32:10;18.00;50.70
28763;DHT22;15918;51.270;6.522;2023-05-24T11:34:38;18.00;50.80
28763;DHT22;15918;51.270;6.522;2023-05-24T11:37:04;18.00;50.80
28763;DHT22;15918;51.270;6.522;2023-05-24T11:39:31;18.00;50.70
28763;DHT22;15918;51.270;6.522;2023-05-24T11:41:57;18.00;50.70
28763;DHT22;15918;51.270;6.522;2023-05-24T11:44:23;18.10;50.70
28763;DHT22;15918;51.270;6.522;2023-05-24T11:46:56;18.10;50.60
28763;DHT22;15918;51.270;6.522;2023-05-24T11:49:23;18.20;50.60
28763;DHT22;15918;51.270;6.522;2023-05-24T11:51:48;18.20;51.30
28763;DHT22;15918;51.270;6.522;2023-05-24T11:54:18;18.20;50.60
28763;DHT22;15918;51.270;6.522;2023-05-24T11:56:43;18.20;50.40
28763;DHT22;15918;51.270;6.522;2023-05-24T11:59:25;18.20;50.30
28763;DHT22;15918;51.270;6.522;2023-05-24T12:01:58;18.20;51.00
28763;DHT22;15918;51.270;6.522;2023-05-24T12:04:25;18.20;50.40
28763;DHT22;15918;51.270;6.522;2023-05-24T12:06:50;18.20;50.30
28763;DHT22;15918;51.270;6.522;2023-05-24T12:09:16;18.20;50.20
28763;DHT22;15918;51.270;6.522;2023-05-24T12:11:46;18.20;50.00
28763;DHT22;15918;51.270;6.522;2023-05-24T12:14:13;18.20;49.90
28763;DHT22;15918;51.270;6.522;2023-05-24T12:16:42;18.20;49.80
28763;DHT22;15918;51.270;6.522;2023-05-24T12:19:11;18.20;49.80
28763;DHT22;15918;51.270;6.522;2023-05-24T12:21:40;18.20;49.80
28763;DHT22;15918;51.270;6.522;2023-05-24T12:24:13;18.30;49.90
28763;DHT22;15918;51.270;6.522;2023-05-24T12:26:45;18.20;49.80
28763;DHT22;15918;51.270;6.522;2023-05-24T12:29:11;18.20;49.90
28763;DHT22;15918;51.270;6.522;2023-05-24T12:31:41;18.20;50.00
28763;DHT22;15918;51.270;6.522;2023-05-24T12:34:11;18.20;50.00
28763;DHT22;15918;51.270;6.522;2023-05-24T12:36:37;18.20;49.90
28763;DHT22;15918;51.270;6.522;2023-05-24T12:39:22;18.20;50.00
28763;DHT22;15918;51.270;6.522;2023-05-24T12:41:53;18.20;49.90
28763;DHT22;15918;51.270;6.522;2023-05-24T12:44:36;18.20;50.10
28763;DHT22;15918;51.270;6.522;2023-05-24T12:47:04;18.20;50.00
28763;DHT22;15918;51.270;6.522;2023-05-24T12:49:30;18.20;50.00
28763;DHT22;15918;51.270;6.522;2023-05-24T12:51:56;18.20;49.90
28763;DHT22;15918;51.270;6.522;2023-05-24T12:54:24;18.20;49.90
28763;DHT22;15918;51.270;6.522;2023-05-24T12:56:50;18.20;49.90
28763;DHT22;15918;51.270;6.522;2023-05-24T12:59:15;18.30;49.90
28763;DHT22;15918;51.270;6.522;2023-05-24T13:01:41;18.20;49.80
28763;DHT22;15918;51.270;6.522;2023-05-24T13:04:09;18.30;49.90
28763;DHT22;15918;51.270;6.522;2023-05-24T13:06:37;18.20;49.80
28763;DHT22;15918;51.270;6.522;2023-05-24T13:09:04;18.20;49.90
28763;DHT22;15918;51.270;6.522;2023-05-24T13:11:30;18.20;50.00
28763;DHT22;15918;51.270;6.522;2023-05-24T13:13:56;18.30;50.00
28763;DHT22;15918;51.270;6.522;2023-05-24T13:16:23;18.20;49.90
28763;DHT22;15918;51.270;6.522;2023-05-24T13:18:50;18.30;50.00
28763;DHT22;15918;51.270;6.522;2023-05-24T13:21:16;18.30;50.00
28763;DHT22;15918;51.270;6.522;2023-05-24T13:23:42;18.30;49.90
28763;DHT22;15918;51.270;6.522;2023-05-24T13:26:08;18.30;49.90
28763;DHT22;15918;51.270;6.522;2023-05-24T13:28:33;18.30;49.90
28763;DHT22;15918;51.270;6.522;2023-05-24T13:31:00;18.30;50.00
28763;DHT22;15918;51.270;6.522;2023-05-24T13:33:26;18.30;49.90
28763;DHT22;15918;51.270;6.522;2023-05-24T13:35:52;18.30;49.90
28763;DHT22;15918;51.270;6.522;2023-05-24T13:38:19;18.30;49.90
28763;DHT22;15918;51.270;6.522;2023-05-24T13:40:45;18.40;49.90
28763;DHT22;15918;51.270;6.522;2023-05-24T13:43:11;18.40;49.90
28763;DHT22;15918;51.270;6.522;2023-05-24T13:45:38;18.40;50.00
28763;DHT22;15918;51.270;6.522;2023-05-24T13:48:04;18.40;50.00
28763;DHT22;15918;51.270;6.522;2023-05-24T13:50:33;18.40;50.00
28763;DHT22;15918;51.270;6.522;2023-05-24T13:52:59;18.40;50.00
28763;DHT22;15918;51.270;6.522;2023-05-24T13:55:30;18.50;50.10
28763;DHT22;15918;51.270;6.522;2023-05-24T13:57:56;18.40;50.00
28763;DHT22;15918;51.270;6.522;2023-05-24T14:00:23;18.40;49.90
28763;DHT22;15918;51.270;6.522;2023-05-24T14:02:50;18.40;49.90
28763;DHT22;15918;51.270;6.522;2023-05-24T14:05:16;18.40;50.50
28763;DHT22;15918;51.270;6.522;2023-05-24T14:07:41;18.40;49.90
28763;DHT22;15918;51.270;6.522;2023-05-24T14:10:07;18.50;50.00
28763;DHT22;15918;51.270;6.522;2023-05-24T14:12:34;18.40;49.90
28763;DHT22;15918;51.270;6.522;2023-05-24T14:14:59;18.50;49.90
28763;DHT22;15918;51.270;6.522;2023-05-24T14:17:26;18.50;49.70
28763;DHT22;15918;51.270;6.522;2023-05-24T14:19:51;18.50;49.70
28763;DHT22;15918;51.270;6.522;2023-05-24T14:22:17;18.50;49.60
28763;DHT22;15918;51.270;6.522;2023-05-24T14:24:42;18.50;49.60
28763;DHT22;15918;51.270;6.522;2023-05-24T14:27:08;18.60;49.60
28763;DHT22;15918;51.270;6.522;2023-05-24T14:29:33;18.50;49.50
28763;DHT22;15918;51.270;6.522;2023-05-24T14:31:59;18.60;49.60
28763;DHT22;15918;51.270;6.522;2023-05-24T14:34:25;18.50;49.50
28763;DHT22;15918;51.270;6.522;2023-05-24T14:36:50;18.50;49.50
28763;DHT22;15918;51.270;6.522;2023-05-24T14:39:16;18.50;49.40
28763;DHT22;15918;51.270;6.522;2023-05-24T14:41:41;18.60;49.50
28763;DHT22;15918;51.270;6.522;2023-05-24T14:44:07;18.50;49.50
28763;DHT22;15918;51.270;6.522;2023-05-24T14:46:33;18.50;49.50
28763;DHT22;15918;51.270;6.522;2023-05-24T14:48:58;18.50;49.50
28763;DHT22;15918;51.270;6.522;2023-05-24T14:51:24;18.50;49.50
28763;DHT22;15918;51.270;6.522;2023-05-24T14:53:49;18.60;49.50
28763;DHT22;15918;51.270;6.522;2023-05-24T14:56:15;18.60;49.50
28763;DHT22;15918;51.270;6.522;2023-05-24T14:58:41;18.60;49.50
28763;DHT22;15918;51.270;6.522;2023-05-24T15:01:07;18.60;49.60
28763;DHT22;15918;51.270;6.522;2023-05-24T15:03:33;18.60;49.60
28763;DHT22;15918;51.270;6.522;2023-05-24T15:05:59;18.60;49.60
28763;DHT22;15918;51.270;6.522;2023-05-24T15:08:25;18.60;49.60
28763;DHT22;15918;51.270;6.522;2023-05-24T15:10:51;18.70;49.70
28763;DHT22;15918;51.270;6.522;2023-05-24T15:13:16;18.70;49.60
28763;DHT22;15918;51.270;6.522;2023-05-24T15:15:43;18.60;49.60
28763;DHT22;15918;51.270;6.522;2023-05-24T15:18:09;18.60;49.50
28763;DHT22;15918;51.270;6.522;2023-05-24T15:20:35;18.70;49.60
28763;DHT22;15918;51.270;6.522;2023-05-24T15:23:01;18.70;49.60
28763;DHT22;15918;51.270;6.522;2023-05-24T15:25:27;18.60;49.50
28763;DHT22;15918;51.270;6.522;2023-05-24T15:27:52;18.70;49.60
28763;DHT22;15918;51.270;6.522;2023-05-24T15:30:19;18.60;49.60
28763;DHT22;15918;51.270;6.522;2023-05-24T15:32:45;18.60;49.50
28763;DHT22;15918;51.270;6.522;2023-05-24T15:35:11;18.70;49.60
28763;DHT22;15918;51.270;6.522;2023-05-24T15:37:38;18.60;49.60